PWSweather.com
Personal Weather Stations
Station Observations
KCTCOLEB1
Sandy Brook, Colebrook, CT 06021

Sandy BrookColebrook, CT 06021

Lat: 42.0018, Lon: -73.0825

Elevation: 935

Station Type: Davis Vantage Pro2 + Solar + UV

Latest ConditionsUpdated 10:10:01 PM EDT Monday, Mar 27, 2017
Currently Today's Max Today's Min Today's Average
Temperature 34.6°F1.4°C 41.4°F5.2°C 32.4°F0.2°C 35.3°F1.8°C
Dew Point 33.6°F0.9°C 40.2°F4.6°C 30.6°F-0.8°C 34.0°F1.1°C
Winds Calm Calm 3.5 mph SW5.6 kmh SW - 0.5 mph 0.8 kmh
Wind Gusts -- 5.8 mph9.3 kmh - -
Humidity 96% 97% 88% 95%
Pressure 30.02 in1016.6 mb 30.36 in1028.1 mb 29.99 in1015.6 mb -
Precipitation - 0.32 in8.1 mm - -
Hour Temp Dew Point Humidity Winds Wind Gusts Pressure Precip Precip Rate Daily Precip Total
10:10 PM 34.6°F1.4°C 33.6°F0.9°C 96% Calm Calm -- 30.02 in1016.6 mb - 0.00 in0.0 mm 0.32 in8.1 mm
10:00 PM 34.7°F1.5°C 33.7°F0.9°C 96% Calm Calm -- 30.03 in1016.9 mb - 0.00 in0.0 mm 0.32 in8.1 mm
09:50 PM 34.7°F1.5°C 33.7°F0.9°C 96% Calm Calm -- 30.03 in1016.9 mb - 0.00 in0.0 mm 0.32 in8.1 mm
09:40 PM 34.7°F1.5°C 33.7°F0.9°C 96% Calm Calm -- 30.03 in1016.9 mb - 0.00 in0.0 mm 0.32 in8.1 mm
09:30 PM 34.8°F1.6°C 33.8°F1.0°C 96% Calm Calm -- 30.02 in1016.6 mb - 0.00 in0.0 mm 0.32 in8.1 mm
09:20 PM 34.9°F1.6°C 33.6°F0.9°C 95% Calm Calm -- 30.02 in1016.6 mb - 0.00 in0.0 mm 0.32 in8.1 mm
09:10 PM 34.9°F1.6°C 33.6°F0.9°C 95% Calm Calm -- 30.02 in1016.6 mb - 0.00 in0.0 mm 0.32 in8.1 mm
09:00 PM 35.0°F1.7°C 33.7°F0.9°C 95% Calm Calm -- 30.02 in1016.6 mb - 0.00 in0.0 mm 0.32 in8.1 mm
08:50 PM 35.1°F1.7°C 33.8°F1.0°C 95% Calm Calm -- 30.02 in1016.6 mb - 0.00 in0.0 mm 0.32 in8.1 mm
08:40 PM 35.2°F1.8°C 33.9°F1.1°C 95% Calm Calm -- 30.02 in1016.6 mb - 0.00 in0.0 mm 0.32 in8.1 mm
08:30 PM 35.3°F1.8°C 34.0°F1.1°C 95% Calm Calm -- 30.03 in1016.9 mb - 0.00 in0.0 mm 0.32 in8.1 mm
08:20 PM 35.5°F1.9°C 34.2°F1.2°C 95% Calm Calm -- 30.01 in1016.3 mb - 0.00 in0.0 mm 0.32 in8.1 mm
08:10 PM 35.7°F2.1°C 34.1°F1.2°C 94% Calm Calm -- 30.01 in1016.3 mb - 0.00 in0.0 mm 0.32 in8.1 mm
08:00 PM 35.9°F2.2°C 34.3°F1.3°C 94% Calm Calm -- 30.01 in1016.3 mb - 0.00 in0.0 mm 0.32 in8.1 mm
07:50 PM 36.1°F2.3°C 34.5°F1.4°C 94% Calm Calm -- 30.01 in1016.3 mb - 0.00 in0.0 mm 0.32 in8.1 mm
07:40 PM 40.7°F4.8°C 38.6°F3.7°C 92% Calm Calm -- 29.99 in1015.6 mb - 0.00 in0.0 mm 0.32 in8.1 mm
05:00 PM 41.0°F5.0°C 39.1°F3.9°C 93% Calm Calm -- 29.99 in1015.6 mb - 0.00 in0.0 mm 0.32 in8.1 mm
04:50 PM 41.1°F5.1°C 39.2°F4.0°C 93% Calm Calm -- 30.00 in1015.9 mb - 0.00 in0.0 mm 0.32 in8.1 mm
04:40 PM 41.1°F5.1°C 39.5°F4.2°C 94% Calm Calm -- 30.00 in1015.9 mb - 0.00 in0.0 mm 0.32 in8.1 mm
04:30 PM 41.1°F5.1°C 39.5°F4.2°C 94% Calm Calm -- 30.00 in1015.9 mb - 0.00 in0.0 mm 0.32 in8.1 mm
04:20 PM 41.4°F5.2°C 40.1°F4.5°C 95% Calm Calm -- 30.00 in1015.9 mb - 0.00 in0.0 mm 0.32 in8.1 mm
04:10 PM 41.2°F5.1°C 40.2°F4.6°C 96% Calm Calm -- 30.01 in1016.3 mb - 0.00 in0.0 mm 0.32 in8.1 mm
04:00 PM 40.9°F4.9°C 39.8°F4.3°C 96% Calm Calm -- 30.01 in1016.3 mb - 0.00 in0.0 mm 0.32 in8.1 mm
03:50 PM 40.8°F4.9°C 39.7°F4.3°C 96% 1.2 mph SW1.9 kmh SW 2.3 mph3.7 kmh 30.01 in1016.3 mb - 0.00 in0.0 mm 0.32 in8.1 mm
03:40 PM 40.7°F4.8°C 39.6°F4.2°C 96% Calm Calm -- 30.01 in1016.3 mb - 0.00 in0.0 mm 0.32 in8.1 mm
03:30 PM 40.5°F4.7°C 39.4°F4.1°C 96% Calm Calm 1.2 mph1.9 kmh 30.01 in1016.3 mb - 0.00 in0.0 mm 0.32 in8.1 mm
03:20 PM 40.2°F4.6°C 39.1°F3.9°C 96% 1.2 mph SW1.9 kmh SW 2.3 mph3.7 kmh 30.01 in1016.3 mb - 0.00 in0.0 mm 0.32 in8.1 mm
03:10 PM 40.0°F4.4°C 39.0°F3.9°C 96% 1.2 mph WSW1.9 kmh WSW 2.3 mph3.7 kmh 30.02 in1016.6 mb - 0.00 in0.0 mm 0.32 in8.1 mm
03:00 PM 39.9°F4.4°C 38.9°F3.8°C 96% 1.2 mph SW1.9 kmh SW 3.5 mph5.6 kmh 30.02 in1016.6 mb - 0.00 in0.0 mm 0.32 in8.1 mm
02:50 PM 39.7°F4.3°C 38.7°F3.7°C 96% 1.2 mph WSW1.9 kmh WSW 3.5 mph5.6 kmh 30.02 in1016.6 mb - 0.00 in0.0 mm 0.32 in8.1 mm
02:40 PM 39.6°F4.2°C 38.6°F3.7°C 96% Calm Calm -- 30.02 in1016.6 mb - 0.00 in0.0 mm 0.32 in8.1 mm
02:30 PM 39.6°F4.2°C 38.6°F3.7°C 96% Calm Calm -- 30.03 in1016.9 mb - 0.00 in0.0 mm 0.32 in8.1 mm
02:20 PM 39.5°F4.2°C 38.7°F3.7°C 97% Calm Calm 2.3 mph3.7 kmh 30.03 in1016.9 mb - 0.00 in0.0 mm 0.32 in8.1 mm
02:10 PM 39.4°F4.1°C 38.6°F3.7°C 97% 1.2 mph SW1.9 kmh SW 2.3 mph3.7 kmh 30.04 in1017.3 mb - 0.00 in0.0 mm 0.32 in8.1 mm
02:00 PM 39.3°F4.1°C 38.5°F3.6°C 97% Calm Calm 1.2 mph1.9 kmh 30.04 in1017.3 mb - 0.00 in0.0 mm 0.32 in8.1 mm
01:50 PM 39.0°F3.9°C 38.2°F3.4°C 97% Calm Calm 2.3 mph3.7 kmh 30.05 in1017.6 mb - 0.00 in0.0 mm 0.32 in8.1 mm
01:40 PM 38.6°F3.7°C 37.8°F3.2°C 97% Calm Calm -- 30.05 in1017.6 mb - 0.00 in0.0 mm 0.32 in8.1 mm
01:30 PM 38.2°F3.4°C 37.4°F3.0°C 97% Calm Calm -- 30.05 in1017.6 mb - 0.00 in0.0 mm 0.32 in8.1 mm
01:20 PM 37.9°F3.3°C 37.1°F2.8°C 97% Calm Calm -- 30.06 in1017.9 mb - 0.00 in0.0 mm 0.32 in8.1 mm
01:10 PM 37.7°F3.2°C 36.9°F2.7°C 97% Calm Calm -- 30.06 in1017.9 mb - 0.00 in0.0 mm 0.32 in8.1 mm
01:00 PM 37.5°F3.1°C 36.7°F2.6°C 97% Calm Calm -- 30.07 in1018.3 mb - 0.00 in0.0 mm 0.32 in8.1 mm
12:50 PM 37.1°F2.8°C 36.3°F2.4°C 97% Calm Calm -- 30.07 in1018.3 mb - 0.00 in0.0 mm 0.32 in8.1 mm
12:40 PM 36.9°F2.7°C 36.1°F2.3°C 97% Calm Calm -- 30.08 in1018.6 mb - 0.00 in0.0 mm 0.32 in8.1 mm
12:30 PM 36.8°F2.7°C 36.0°F2.2°C 97% Calm Calm -- 30.08 in1018.6 mb - 0.00 in0.0 mm 0.32 in8.1 mm
12:20 PM 36.4°F2.4°C 35.7°F2.1°C 97% Calm Calm -- 30.08 in1018.6 mb - 0.00 in0.0 mm 0.32 in8.1 mm
12:10 PM 36.3°F2.4°C 35.5°F1.9°C 97% Calm Calm -- 30.08 in1018.6 mb - 0.01 in0.3 mm 0.32 in8.1 mm
12:00 PM 36.1°F2.3°C 35.3°F1.8°C 97% Calm Calm -- 30.08 in1018.6 mb - 0.00 in0.0 mm 0.31 in7.9 mm
11:50 AM 35.8°F2.1°C 35.0°F1.7°C 97% Calm Calm -- 30.09 in1019.0 mb - 0.00 in0.0 mm 0.31 in7.9 mm
11:40 AM 35.7°F2.1°C 34.9°F1.6°C 97% Calm Calm -- 30.08 in1018.6 mb - 0.00 in0.0 mm 0.31 in7.9 mm
11:30 AM 35.3°F1.8°C 34.6°F1.4°C 97% Calm Calm -- 30.09 in1019.0 mb - 0.00 in0.0 mm 0.31 in7.9 mm
11:20 AM 35.2°F1.8°C 34.4°F1.3°C 97% Calm Calm -- 30.10 in1019.3 mb - 0.00 in0.0 mm 0.31 in7.9 mm
11:10 AM 35.0°F1.7°C 34.2°F1.2°C 97% Calm Calm -- 30.11 in1019.6 mb - 0.01 in0.3 mm 0.31 in7.9 mm
11:00 AM 34.8°F1.6°C 34.1°F1.2°C 97% Calm Calm -- 30.11 in1019.6 mb - 0.00 in0.0 mm 0.30 in7.6 mm
10:50 AM 34.8°F1.6°C 34.0°F1.1°C 97% Calm Calm -- 30.11 in1019.6 mb - 0.00 in0.0 mm 0.30 in7.6 mm
10:40 AM 34.6°F1.4°C 33.8°F1.0°C 97% Calm Calm -- 30.11 in1019.6 mb - 0.00 in0.0 mm 0.30 in7.6 mm
10:30 AM 34.3°F1.3°C 33.5°F0.8°C 97% Calm Calm -- 30.11 in1019.6 mb - 0.00 in0.0 mm 0.30 in7.6 mm
10:20 AM 34.1°F1.2°C 33.3°F0.7°C 97% Calm Calm -- 30.12 in1020.0 mb - 0.00 in0.0 mm 0.30 in7.6 mm
10:10 AM 34.0°F1.1°C 33.2°F0.7°C 97% Calm Calm -- 30.12 in1020.0 mb - 0.02 in0.5 mm 0.30 in7.6 mm
10:00 AM 33.9°F1.1°C 33.2°F0.7°C 97% Calm Calm -- 30.12 in1020.0 mb - 0.01 in0.3 mm 0.28 in7.1 mm
09:50 AM 33.8°F1.0°C 33.0°F0.6°C 97% Calm Calm -- 30.12 in1020.0 mb - 0.01 in0.3 mm 0.27 in6.9 mm
09:40 AM 33.7°F0.9°C 32.9°F0.5°C 97% Calm Calm -- 30.13 in1020.3 mb - 0.01 in0.3 mm 0.27 in6.9 mm
09:30 AM 33.5°F0.8°C 32.7°F0.4°C 97% Calm Calm -- 30.12 in1020.0 mb - 0.02 in0.5 mm 0.26 in6.6 mm
09:20 AM 33.5°F0.8°C 32.7°F0.4°C 97% Calm Calm -- 30.12 in1020.0 mb - 0.04 in1.0 mm 0.24 in6.1 mm
09:10 AM 33.5°F0.8°C 32.7°F0.4°C 97% Calm Calm -- 30.13 in1020.3 mb - 0.04 in1.0 mm 0.21 in5.3 mm
09:00 AM 33.5°F0.8°C 32.7°F0.4°C 97% Calm Calm -- 30.13 in1020.3 mb - 0.03 in0.8 mm 0.17 in4.3 mm
08:50 AM 33.5°F0.8°C 32.7°F0.4°C 97% Calm Calm 1.2 mph1.9 kmh 30.13 in1020.3 mb - 0.02 in0.5 mm 0.14 in3.6 mm
08:40 AM 33.4°F0.8°C 32.6°F0.3°C 97% 1.2 mph WNW1.9 kmh WNW 1.2 mph1.9 kmh 30.13 in1020.3 mb - 0.01 in0.3 mm 0.12 in3.0 mm
08:30 AM 33.2°F0.7°C 32.4°F0.2°C 97% 1.2 mph SW1.9 kmh SW 1.2 mph1.9 kmh 30.15 in1021.0 mb - 0.00 in0.0 mm 0.11 in2.8 mm
08:20 AM 33.2°F0.7°C 32.4°F0.2°C 97% 1.2 mph SW1.9 kmh SW 1.2 mph1.9 kmh 30.15 in1021.0 mb - 0.00 in0.0 mm 0.11 in2.8 mm
08:10 AM 33.2°F0.7°C 32.4°F0.2°C 97% 1.2 mph SW1.9 kmh SW 1.2 mph1.9 kmh 30.15 in1021.0 mb - 0.00 in0.0 mm 0.11 in2.8 mm
08:00 AM 33.2°F0.7°C 32.4°F0.2°C 97% 1.2 mph SW1.9 kmh SW 1.2 mph1.9 kmh 30.15 in1021.0 mb - 0.00 in0.0 mm 0.11 in2.8 mm
07:40 AM 33.1°F0.6°C 32.4°F0.2°C 97% Calm Calm -- 30.15 in1021.0 mb - 0.00 in0.0 mm 0.11 in2.8 mm
07:30 AM 33.1°F0.6°C 32.3°F0.2°C 97% Calm Calm -- 30.16 in1021.3 mb - 0.01 in0.3 mm 0.11 in2.8 mm
07:20 AM 33.0°F0.6°C 32.3°F0.2°C 97% Calm Calm -- 30.16 in1021.3 mb - 0.00 in0.0 mm 0.10 in2.5 mm
07:10 AM 33.0°F0.6°C 32.2°F0.1°C 97% 1.2 mph WSW1.9 kmh WSW 2.3 mph3.7 kmh 30.17 in1021.7 mb - 0.01 in0.3 mm 0.10 in2.5 mm
07:00 AM 33.0°F0.6°C 32.2°F0.1°C 97% Calm Calm -- 30.17 in1021.7 mb - 0.00 in0.0 mm 0.09 in2.3 mm
06:50 AM 33.0°F0.6°C 32.2°F0.1°C 97% Calm Calm -- 30.17 in1021.7 mb - 0.06 in1.5 mm 0.09 in2.3 mm
06:40 AM 32.8°F0.4°C 31.7°F-0.2°C 96% Calm Calm 1.2 mph1.9 kmh 30.19 in1022.4 mb - 0.06 in1.5 mm 0.09 in2.3 mm
06:30 AM 32.7°F0.4°C 31.7°F-0.2°C 96% Calm Calm -- 30.20 in1022.7 mb - 0.00 in0.0 mm 0.03 in0.8 mm
06:20 AM 32.7°F0.4°C 31.7°F-0.2°C 96% Calm Calm -- 30.20 in1022.7 mb - 0.00 in0.0 mm 0.03 in0.8 mm
06:10 AM 32.7°F0.4°C 31.7°F-0.2°C 96% Calm Calm -- 30.20 in1022.7 mb - 0.00 in0.0 mm 0.03 in0.8 mm
06:00 AM 32.7°F0.4°C 31.7°F-0.2°C 96% Calm Calm -- 30.20 in1022.7 mb - 0.00 in0.0 mm 0.03 in0.8 mm
05:50 AM 32.7°F0.4°C 31.7°F-0.2°C 96% Calm Calm -- 30.20 in1022.7 mb - 0.00 in0.0 mm 0.03 in0.8 mm
05:40 AM 32.7°F0.4°C 31.7°F-0.2°C 96% Calm Calm -- 30.20 in1022.7 mb - 0.01 in0.3 mm 0.03 in0.8 mm
05:20 AM 32.7°F0.4°C 31.7°F-0.2°C 96% Calm Calm -- 30.20 in1022.7 mb - 0.00 in0.0 mm 0.02 in0.5 mm
05:10 AM 32.6°F0.3°C 31.6°F-0.2°C 96% 1.2 mph W1.9 kmh W 1.2 mph1.9 kmh 30.21 in1023.0 mb - 0.00 in0.0 mm 0.02 in0.5 mm
05:00 AM 32.6°F0.3°C 31.6°F-0.2°C 96% 1.2 mph W1.9 kmh W 3.5 mph5.6 kmh 30.21 in1023.0 mb - 0.02 in0.5 mm 0.02 in0.5 mm
04:50 AM 32.4°F0.2°C 31.1°F-0.5°C 95% Calm Calm -- 30.24 in1024.0 mb - 0.00 in0.0 mm 0.00 in0.0 mm
04:40 AM 32.4°F0.2°C 31.1°F-0.5°C 95% Calm Calm -- 30.24 in1024.0 mb - 0.00 in0.0 mm 0.00 in0.0 mm
04:30 AM 32.4°F0.2°C 31.1°F-0.5°C 95% Calm Calm -- 30.24 in1024.0 mb - 0.00 in0.0 mm 0.00 in0.0 mm
04:20 AM 32.4°F0.2°C 31.1°F-0.5°C 95% Calm Calm -- 30.24 in1024.0 mb - 0.00 in0.0 mm 0.00 in0.0 mm
04:10 AM 32.4°F0.2°C 31.1°F-0.5°C 95% Calm Calm -- 30.24 in1024.0 mb - 0.00 in0.0 mm 0.00 in0.0 mm
04:00 AM 32.4°F0.2°C 31.1°F-0.5°C 95% Calm Calm -- 30.24 in1024.0 mb - 0.00 in0.0 mm 0.00 in0.0 mm
03:40 AM 32.5°F0.3°C 31.2°F-0.4°C 95% Calm Calm -- 30.24 in1024.0 mb - 0.00 in0.0 mm 0.00 in0.0 mm
03:30 AM 32.5°F0.3°C 31.0°F-0.6°C 94% Calm Calm -- 30.25 in1024.4 mb - 0.00 in0.0 mm 0.00 in0.0 mm
03:20 AM 32.5°F0.3°C 31.0°F-0.6°C 94% Calm Calm -- 30.26 in1024.7 mb - 0.00 in0.0 mm 0.00 in0.0 mm
03:10 AM 33.2°F0.7°C 30.9°F-0.6°C 91% 1.2 mph WSW1.9 kmh WSW 1.2 mph1.9 kmh 30.29 in1025.7 mb - 0.00 in0.0 mm 0.00 in0.0 mm
03:00 AM 33.2°F0.7°C 30.9°F-0.6°C 91% 1.2 mph WSW1.9 kmh WSW 1.2 mph1.9 kmh 30.29 in1025.7 mb - 0.00 in0.0 mm 0.00 in0.0 mm
02:50 AM 33.2°F0.7°C 30.9°F-0.6°C 91% 1.2 mph WSW1.9 kmh WSW 1.2 mph1.9 kmh 30.29 in1025.7 mb - 0.00 in0.0 mm 0.00 in0.0 mm
02:30 AM 33.2°F0.7°C 30.9°F-0.6°C 91% 1.2 mph WSW1.9 kmh WSW 1.2 mph1.9 kmh 30.29 in1025.7 mb - 0.00 in0.0 mm 0.00 in0.0 mm
02:20 AM 33.2°F0.7°C 30.9°F-0.6°C 91% 1.2 mph WSW1.9 kmh WSW 1.2 mph1.9 kmh 30.29 in1025.7 mb - 0.00 in0.0 mm 0.00 in0.0 mm
02:10 AM 33.2°F0.7°C 30.9°F-0.6°C 91% 1.2 mph WSW1.9 kmh WSW 1.2 mph1.9 kmh 30.29 in1025.7 mb - 0.00 in0.0 mm 0.00 in0.0 mm
02:00 AM 33.8°F1.0°C 30.6°F-0.8°C 88% 3.5 mph SW5.6 kmh SW 2.3 mph3.7 kmh 30.32 in1026.8 mb - 0.00 in0.0 mm 0.00 in0.0 mm
01:50 AM 33.8°F1.0°C 30.6°F-0.8°C 88% 3.5 mph SW5.6 kmh SW 2.3 mph3.7 kmh 30.32 in1026.8 mb - 0.00 in0.0 mm 0.00 in0.0 mm
01:40 AM 33.8°F1.0°C 30.6°F-0.8°C 88% 3.5 mph SW5.6 kmh SW 2.3 mph3.7 kmh 30.32 in1026.8 mb - 0.00 in0.0 mm 0.00 in0.0 mm
01:30 AM 33.8°F1.0°C 30.6°F-0.8°C 88% 3.5 mph SW5.6 kmh SW 2.3 mph3.7 kmh 30.32 in1026.8 mb - 0.00 in0.0 mm 0.00 in0.0 mm
01:20 AM 33.8°F1.0°C 30.6°F-0.8°C 88% 3.5 mph SW5.6 kmh SW 2.3 mph3.7 kmh 30.32 in1026.8 mb - 0.00 in0.0 mm 0.00 in0.0 mm
01:10 AM 33.8°F1.0°C 30.6°F-0.8°C 88% 3.5 mph SW5.6 kmh SW 2.3 mph3.7 kmh 30.32 in1026.8 mb - 0.00 in0.0 mm 0.00 in0.0 mm
01:00 AM 33.8°F1.0°C 30.6°F-0.8°C 88% 2.3 mph WSW3.7 kmh WSW 3.5 mph5.6 kmh 30.32 in1026.8 mb - 0.00 in0.0 mm 0.00 in0.0 mm
12:50 AM 33.8°F1.0°C 30.6°F-0.8°C 88% 1.2 mph WSW1.9 kmh WSW 3.5 mph5.6 kmh 30.32 in1026.8 mb - 0.00 in0.0 mm 0.00 in0.0 mm
12:40 AM 33.9°F1.1°C 30.7°F-0.7°C 88% 1.2 mph WSW1.9 kmh WSW 5.8 mph9.3 kmh 30.33 in1027.1 mb - 0.00 in0.0 mm 0.00 in0.0 mm
12:30 AM 34.0°F1.1°C 31.6°F-0.2°C 91% 1.2 mph WSW1.9 kmh WSW 3.5 mph5.6 kmh 30.35 in1027.8 mb - 0.00 in0.0 mm 0.00 in0.0 mm
12:20 AM 34.0°F1.1°C 31.9°F-0.1°C 92% 1.2 mph WSW1.9 kmh WSW 1.2 mph1.9 kmh 30.36 in1028.1 mb - 0.00 in0.0 mm 0.00 in0.0 mm
12:10 AM 34.0°F1.1°C 31.9°F-0.1°C 92% 1.2 mph WSW1.9 kmh WSW 1.2 mph1.9 kmh 30.36 in1028.1 mb - 0.00 in0.0 mm 0.00 in0.0 mm
12:00 AM 34.0°F1.1°C 31.9°F-0.1°C 92% 1.2 mph WSW1.9 kmh WSW 1.2 mph1.9 kmh 30.36 in1028.1 mb - 0.00 in0.0 mm 0.00 in0.0 mm